Time;durP1;ratioP1;P1;durP2;ratioP2;P2;SDS_P1;SDS_P2;PMS_P1;PMS_P2;Temp;Humidity;BMP_temperature;BMP_pressure;BME280_temperature;BME280_humidity;BME280_pressure;Samples;Min_cycle;Max_cycle;Signal;HPM_P1;HPM_P2
2021/01/31 00:01:45;;;;;;;45.38;23.33;;;;;;;;;;5091012;28;20107;-68
2021/01/31 00:04:11;;;;;;;45.33;26.77;;;;;;;;;;5092482;28;20031;-69
2021/01/31 00:06:37;;;;;;;97.38;45.38;;;;;;;;;;5091940;28;20066;-68
2021/01/31 00:09:03;;;;;;;60.05;30.17;;;;;;;;;;5091828;28;20495;-69
2021/01/31 00:11:30;;;;;;;54.97;29.27;;;;;;;;;;5091166;28;20028;-69
2021/01/31 00:13:56;;;;;;;54.20;30.45;;;;;;;;;;5092470;28;20391;-69
2021/01/31 00:16:22;;;;;;;33.50;17.50;;;;;;;;;;5091793;28;20103;-69
2021/01/31 00:18:48;;;;;;;32.20;16.65;;;;;;;;;;5092413;28;20024;-68
2021/01/31 00:21:14;;;;;;;32.20;14.73;;;;;;;;;;5092873;28;20020;-69
2021/01/31 00:23:41;;;;;;;23.33;11.80;;;;;;;;;;5092393;28;20392;-68
2021/01/31 00:26:07;;;;;;;23.40;12.85;;;;;;;;;;5092071;28;20028;-69
2021/01/31 00:28:33;;;;;;;22.65;11.55;;;;;;;;;;5093315;28;20024;-69
2021/01/31 00:30:59;;;;;;;20.48;11.45;;;;;;;;;;5094657;28;20380;-68
2021/01/31 00:33:27;;;;;;;18.75;9.75;;;;;;;;;;5096376;28;20024;-69
2021/01/31 00:35:54;;;;;;;17.20;8.88;;;;;;;;;;5096287;28;20077;-69
2021/01/31 00:38:21;;;;;;;12.70;7.13;;;;;;;;;;5094685;28;20414;-69
2021/01/31 00:40:48;;;;;;;18.65;8.13;;;;;;;;;;5096456;28;20024;-69
2021/01/31 00:43:15;;;;;;;22.95;12.20;;;;;;;;;;5096290;28;20051;-69
2021/01/31 00:45:41;;;;;;;15.43;8.82;;;;;;;;;;5095659;28;20498;-70
2021/01/31 00:48:07;;;;;;;16.02;8.70;;;;;;;;;;5096173;28;20103;-69
2021/01/31 00:50:35;;;;;;;19.65;9.57;;;;;;;;;;5094442;28;20019;-70
2021/01/31 00:53:01;;;;;;;16.58;8.38;;;;;;;;;;5096103;28;20033;-71
2021/01/31 00:55:27;;;;;;;13.40;7.30;;;;;;;;;;5096337;28;20032;-70
2021/01/31 00:57:54;;;;;;;18.13;9.45;;;;;;;;;;5095550;28;20027;-69
2021/01/31 01:00:20;;;;;;;17.90;8.25;;;;;;;;;;5095942;28;20093;-70
2021/01/31 01:02:46;;;;;;;21.27;11.07;;;;;;;;;;5096095;28;20044;-70
2021/01/31 01:05:13;;;;;;;23.25;11.60;;;;;;;;;;5094137;28;20380;-68
2021/01/31 01:07:41;;;;;;;15.63;9.65;;;;;;;;;;5095407;28;20201;-68
2021/01/31 01:10:08;;;;;;;20.02;10.25;;;;;;;;;;5095714;28;20024;-70
2021/01/31 01:12:34;;;;;;;17.08;8.90;;;;;;;;;;5095181;28;20035;-69
2021/01/31 01:15:00;;;;;;;14.00;7.20;;;;;;;;;;5095651;28;20028;-70
2021/01/31 01:17:27;;;;;;;10.77;5.93;;;;;;;;;;5095489;28;20079;-69
2021/01/31 01:19:53;;;;;;;13.02;7.68;;;;;;;;;;5095116;28;20557;-68
2021/01/31 01:22:20;;;;;;;20.02;10.80;;;;;;;;;;5095889;28;20034;-68
2021/01/31 01:24:52;;;;;;;23.67;12.85;;;;;;;;;;5094129;28;20024;-68
2021/01/31 01:27:19;;;;;;;20.58;11.95;;;;;;;;;;5094869;28;20032;-68
2021/01/31 01:29:45;;;;;;;24.83;12.35;;;;;;;;;;5095274;28;20028;-68
2021/01/31 01:32:11;;;;;;;25.23;15.65;;;;;;;;;;5095273;28;20025;-69
2021/01/31 01:34:37;;;;;;;36.08;18.85;;;;;;;;;;5094845;28;20024;-69
2021/01/31 01:37:03;;;;;;;28.00;14.68;;;;;;;;;;5095155;28;20030;-69
2021/01/31 01:39:29;;;;;;;29.00;13.82;;;;;;;;;;5094639;28;20422;-69
2021/01/31 01:41:56;;;;;;;15.52;8.88;;;;;;;;;;5093527;28;20032;-68
2021/01/31 01:44:22;;;;;;;19.77;9.77;;;;;;;;;;5093861;28;20107;-68
2021/01/31 01:46:50;;;;;;;16.75;9.52;;;;;;;;;;5094474;28;20035;-68
2021/01/31 01:49:24;;;;;;;17.33;9.00;;;;;;;;;;5094918;28;20347;-69
2021/01/31 01:51:53;;;;;;;16.17;7.68;;;;;;;;;;5094868;28;20028;-68
2021/01/31 01:54:23;;;;;;;14.07;6.38;;;;;;;;;;5094418;28;20035;-69
2021/01/31 01:56:52;;;;;;;12.05;6.20;;;;;;;;;;5094720;28;20082;-68
2021/01/31 01:59:18;;;;;;;14.65;7.47;;;;;;;;;;5094522;28;20021;-68
2021/01/31 02:01:53;;;;;;;10.65;6.47;;;;;;;;;;5094547;28;20028;-68
2021/01/31 02:04:20;;;;;;;11.27;5.70;;;;;;;;;;5093485;28;20016;-69
2021/01/31 02:06:46;;;;;;;13.30;7.40;;;;;;;;;;5093150;28;20024;-68
2021/01/31 02:09:12;;;;;;;15.40;8.13;;;;;;;;;;5092699;28;20135;-68
2021/01/31 02:11:38;;;;;;;11.55;6.18;;;;;;;;;;5094435;28;20025;-68
2021/01/31 02:14:08;;;;;;;14.60;9.30;;;;;;;;;;5094490;28;20020;-68
2021/01/31 02:16:36;;;;;;;14.43;8.20;;;;;;;;;;5094014;28;20460;-68
2021/01/31 02:19:21;;;;;;;23.63;13.82;;;;;;;;;;5094374;28;20028;-68
2021/01/31 02:22:06;;;;;;;18.35;10.63;;;;;;;;;;5094155;28;20027;-68
2021/01/31 02:24:41;;;;;;;27.17;13.68;;;;;;;;;;5094364;28;20581;-68
2021/01/31 02:27:16;;;;;;;18.10;10.48;;;;;;;;;;5092808;28;20028;-68
2021/01/31 02:29:48;;;;;;;18.65;10.38;;;;;;;;;;5093798;28;20020;-68
2021/01/31 02:32:24;;;;;;;21.57;11.90;;;;;;;;;;5094058;28;20151;-68
2021/01/31 02:34:53;;;;;;;23.10;14.13;;;;;;;;;;5094085;28;20020;-69
2021/01/31 02:37:23;;;;;;;26.73;15.38;;;;;;;;;;5093642;28;20486;-69
2021/01/31 02:40:08;;;;;;;20.77;11.20;;;;;;;;;;5093962;28;20077;-69
2021/01/31 02:42:51;;;;;;;18.80;11.45;;;;;;;;;;5092817;28;20016;-69
2021/01/31 02:45:23;;;;;;;15.02;6.65;;;;;;;;;;5093882;28;20557;-68
2021/01/31 02:47:59;;;;;;;14.00;7.53;;;;;;;;;;5092440;28;20488;-69
2021/01/31 02:50:35;;;;;;;12.85;7.38;;;;;;;;;;5092541;28;20496;-69
2021/01/31 02:53:13;;;;;;;11.15;6.65;;;;;;;;;;5093653;28;20548;-69
2021/01/31 02:55:42;;;;;;;14.80;6.95;;;;;;;;;;5093686;28;20473;-69
2021/01/31 02:58:11;;;;;;;10.55;6.35;;;;;;;;;;5093211;28;20513;-69
2021/01/31 03:00:40;;;;;;;9.90;5.03;;;;;;;;;;5093564;28;20522;-69
2021/01/31 03:03:20;;;;;;;10.57;5.20;;;;;;;;;;5092419;28;20027;-69
2021/01/31 03:05:48;;;;;;;11.18;5.85;;;;;;;;;;5092905;28;20050;-70
2021/01/31 03:08:34;;;;;;;19.95;8.85;;;;;;;;;;5093194;28;20048;-68
2021/01/31 03:11:03;;;;;;;13.60;6.75;;;;;;;;;;5092842;28;20020;-69
2021/01/31 03:13:29;;;;;;;11.77;5.38;;;;;;;;;;5093261;28;20042;-69
2021/01/31 03:15:59;;;;;;;12.80;6.30;;;;;;;;;;5093200;28;20028;-68
2021/01/31 03:18:30;;;;;;;12.30;5.72;;;;;;;;;;5091609;28;20028;-68
2021/01/31 03:20:59;;;;;;;12.00;5.82;;;;;;;;;;5093389;28;20529;-68
2021/01/31 03:23:33;;;;;;;11.50;6.68;;;;;;;;;;5093266;28;20039;-68
2021/01/31 03:26:02;;;;;;;13.65;6.53;;;;;;;;;;5092714;28;20031;-68
2021/01/31 03:28:29;;;;;;;13.02;5.60;;;;;;;;;;5093053;28;20422;-68
2021/01/31 03:30:58;;;;;;;31.77;14.43;;;;;;;;;;5092961;28;20024;-68
2021/01/31 03:33:30;;;;;;;25.45;13.30;;;;;;;;;;5092571;28;20027;-68
2021/01/31 03:35:57;;;;;;;18.05;10.40;;;;;;;;;;5091648;28;20030;-68
2021/01/31 03:38:26;;;;;;;20.95;11.10;;;;;;;;;;5092907;28;20033;-68
2021/01/31 03:40:54;;;;;;;22.77;11.77;;;;;;;;;;5092639;28;20017;-68
2021/01/31 03:43:21;;;;;;;18.52;10.68;;;;;;;;;;5091615;28;20394;-68
2021/01/31 03:46:06;;;;;;;19.55;10.95;;;;;;;;;;5092749;28;20020;-68
2021/01/31 03:48:39;;;;;;;19.08;10.05;;;;;;;;;;5091044;28;20039;-68
2021/01/31 03:51:05;;;;;;;19.30;10.77;;;;;;;;;;5092684;28;20383;-68
2021/01/31 03:53:31;;;;;;;22.63;10.88;;;;;;;;;;5092318;28;20555;-68
2021/01/31 03:55:58;;;;;;;21.20;11.35;;;;;;;;;;5092572;28;20035;-69
2021/01/31 03:58:25;;;;;;;18.85;9.30;;;;;;;;;;5092771;28;20024;-68
2021/01/31 04:00:57;;;;;;;18.08;9.00;;;;;;;;;;5092456;28;20024;-68
2021/01/31 04:03:28;;;;;;;28.02;11.27;;;;;;;;;;5092451;28;20024;-68
2021/01/31 04:06:06;;;;;;;16.55;8.80;;;;;;;;;;5091182;28;20514;-68
2021/01/31 04:08:34;;;;;;;17.38;9.35;;;;;;;;;;5092114;28;20059;-68
2021/01/31 04:11:00;;;;;;;16.02;8.55;;;;;;;;;;5091219;28;20480;-68
2021/01/31 04:13:27;;;;;;;12.90;7.18;;;;;;;;;;5092483;28;20032;-69
2021/01/31 04:15:55;;;;;;;12.55;6.05;;;;;;;;;;5092093;28;20021;-68
2021/01/31 04:18:22;;;;;;;13.55;6.75;;;;;;;;;;5092626;28;20032;-68
2021/01/31 04:20:49;;;;;;;16.67;9.27;;;;;;;;;;5092497;28;20020;-68
2021/01/31 04:23:15;;;;;;;18.35;10.38;;;;;;;;;;5091951;28;20103;-68
2021/01/31 04:25:42;;;;;;;24.58;13.52;;;;;;;;;;5092334;28;20008;-68
2021/01/31 04:28:09;;;;;;;27.55;15.15;;;;;;;;;;5092362;28;20054;-70
2021/01/31 04:30:39;;;;;;;21.88;9.25;;;;;;;;;;5091946;28;20024;-68
2021/01/31 04:33:06;;;;;;;17.15;9.48;;;;;;;;;;5092212;28;20492;-68
2021/01/31 04:35:32;;;;;;;15.63;8.07;;;;;;;;;;5091794;28;20099;-68
2021/01/31 04:37:59;;;;;;;13.13;4.88;;;;;;;;;;5092497;28;20020;-68
2021/01/31 04:40:25;;;;;;;10.73;4.90;;;;;;;;;;5090957;28;20115;-68
2021/01/31 04:42:51;;;;;;;8.88;4.20;;;;;;;;;;5090477;28;20094;-68
2021/01/31 04:45:17;;;;;;;10.23;4.35;;;;;;;;;;5092373;28;20017;-68
2021/01/31 04:47:58;;;;;;;21.67;10.43;;;;;;;;;;5090774;28;20073;-68
2021/01/31 04:50:28;;;;;;;18.80;8.65;;;;;;;;;;5090557;28;20032;-68
2021/01/31 04:53:09;;;;;;;18.65;8.18;;;;;;;;;;5092066;28;20036;-68
2021/01/31 04:55:50;;;;;;;17.05;9.50;;;;;;;;;;5092095;28;20082;-68
2021/01/31 04:58:18;;;;;;;19.77;10.73;;;;;;;;;;5090595;28;20028;-68
2021/01/31 05:00:59;;;;;;;22.83;11.90;;;;;;;;;;5092127;28;20515;-68
2021/01/31 05:03:26;;;;;;;28.67;14.48;;;;;;;;;;5091992;28;20070;-68
2021/01/31 05:06:05;;;;;;;24.13;12.50;;;;;;;;;;5090274;28;20027;-68
2021/01/31 05:08:32;;;;;;;18.65;10.20;;;;;;;;;;5091776;28;20110;-68
2021/01/31 05:11:07;;;;;;;24.27;10.70;;;;;;;;;;5090264;28;20063;-68
2021/01/31 05:13:45;;;;;;;17.50;8.38;;;;;;;;;;5092470;28;20032;-68
2021/01/31 05:16:15;;;;;;;13.65;6.88;;;;;;;;;;5095616;28;20023;-68
2021/01/31 05:18:52;;;;;;;10.65;5.25;;;;;;;;;;5095357;28;20024;-68
2021/01/31 05:21:24;;;;;;;18.20;8.38;;;;;;;;;;5095654;28;20076;-68
2021/01/31 05:24:00;;;;;;;23.60;9.90;;;;;;;;;;5095402;28;20024;-68
2021/01/31 05:26:26;;;;;;;15.15;7.63;;;;;;;;;;5095234;28;20464;-68
2021/01/31 05:28:56;;;;;;;12.73;7.18;;;;;;;;;;5093949;28;20032;-68
2021/01/31 05:31:23;;;;;;;13.20;7.43;;;;;;;;;;5095266;28;20095;-68
2021/01/31 05:33:51;;;;;;;18.02;9.93;;;;;;;;;;5094883;28;20024;-68
2021/01/31 05:36:19;;;;;;;17.90;8.60;;;;;;;;;;5095191;28;20069;-68
2021/01/31 05:38:46;;;;;;;17.55;10.07;;;;;;;;;;5094861;28;20024;-68
2021/01/31 05:41:24;;;;;;;17.15;8.55;;;;;;;;;;5095262;28;20024;-68
2021/01/31 05:44:01;;;;;;;18.13;10.07;;;;;;;;;;5093686;28;20032;-68
2021/01/31 05:46:39;;;;;;;19.92;9.65;;;;;;;;;;5094550;28;20081;-69
2021/01/31 05:49:06;;;;;;;30.20;16.60;;;;;;;;;;5093625;28;20039;-68
2021/01/31 05:51:34;;;;;;;30.52;15.32;;;;;;;;;;5094935;28;20035;-68
2021/01/31 05:54:20;;;;;;;27.83;13.82;;;;;;;;;;5094425;28;20016;-68
2021/01/31 05:56:48;;;;;;;26.75;12.75;;;;;;;;;;5094655;28;20054;-68
2021/01/31 05:59:14;;;;;;;27.67;14.45;;;;;;;;;;5094966;28;20079;-68
2021/01/31 06:01:51;;;;;;;21.00;10.77;;;;;;;;;;5094496;28;20024;-68
2021/01/31 06:04:18;;;;;;;21.23;11.07;;;;;;;;;;5093349;28;20476;-70
2021/01/31 06:06:45;;;;;;;19.17;9.48;;;;;;;;;;5094592;28;20476;-69
2021/01/31 06:09:17;;;;;;;23.63;11.70;;;;;;;;;;5094088;28;20048;-69
2021/01/31 06:11:44;;;;;;;22.23;11.68;;;;;;;;;;5094565;28;20395;-69
2021/01/31 06:14:31;;;;;;;24.67;14.13;;;;;;;;;;5094052;28;20030;-68
2021/01/31 06:17:02;;;;;;;25.23;13.63;;;;;;;;;;5094290;28;20031;-68
2021/01/31 06:19:28;;;;;;;25.83;14.57;;;;;;;;;;5094607;28;20480;-68
2021/01/31 06:21:55;;;;;;;21.98;12.25;;;;;;;;;;5093973;28;20077;-68
2021/01/31 06:24:30;;;;;;;33.40;18.08;;;;;;;;;;5094238;28;20433;-68
2021/01/31 06:26:57;;;;;;;62.13;28.75;;;;;;;;;;5094117;28;20141;-69
2021/01/31 06:29:42;;;;;;;46.92;25.58;;;;;;;;;;5093726;28;20028;-68
2021/01/31 06:32:11;;;;;;;37.90;19.67;;;;;;;;;;5092793;28;20514;-68
2021/01/31 06:34:38;;;;;;;35.72;18.25;;;;;;;;;;5094107;28;20024;-68
2021/01/31 06:37:23;;;;;;;30.23;15.50;;;;;;;;;;5092458;28;20571;-68
2021/01/31 06:39:55;;;;;;;26.85;12.63;;;;;;;;;;5094193;28;20388;-70
2021/01/31 06:42:35;;;;;;;25.98;14.40;;;;;;;;;;5093740;28;20423;-70
2021/01/31 06:45:01;;;;;;;18.17;11.23;;;;;;;;;;5093834;28;20353;-70
2021/01/31 06:47:34;;;;;;;27.70;15.25;;;;;;;;;;5093735;28;20561;-70
2021/01/31 06:50:00;;;;;;;23.50;12.32;;;;;;;;;;5092251;28;20027;-70
2021/01/31 06:52:33;;;;;;;33.10;19.30;;;;;;;;;;5093768;28;20035;-70
2021/01/31 06:55:17;;;;;;;53.53;31.35;;;;;;;;;;5093718;28;20030;-69
2021/01/31 06:57:52;;;;;;;53.95;33.58;;;;;;;;;;5093370;28;20516;-69
2021/01/31 07:00:31;;;;;;;76.07;46.00;;;;;;;;;;5093710;28;20023;-69
2021/01/31 07:02:57;;;;;;;55.35;32.67;;;;;;;;;;5093525;28;20031;-69
2021/01/31 07:05:42;;;;;;;60.08;37.25;;;;;;;;;;5091861;28;20020;-69
2021/01/31 07:08:17;;;;;;;51.88;33.40;;;;;;;;;;5093265;28;20044;-69
2021/01/31 07:11:03;;;;;;;48.90;29.50;;;;;;;;;;5091781;28;20016;-69
2021/01/31 07:13:45;;;;;;;44.83;25.00;;;;;;;;;;5093486;28;20024;-70
2021/01/31 07:16:33;;;;;;;52.88;31.60;;;;;;;;;;5093342;28;20028;-69
2021/01/31 07:19:04;;;;;;;52.45;28.83;;;;;;;;;;5093112;28;20024;-69
2021/01/31 07:21:48;;;;;;;57.65;32.40;;;;;;;;;;5093376;28;20028;-69
2021/01/31 07:24:23;;;;;;;87.10;49.70;;;;;;;;;;5092881;28;20053;-69
2021/01/31 07:27:13;;;;;;;173.57;99.18;;;;;;;;;;5093349;28;20032;-69
2021/01/31 07:29:45;;;;;;;143.27;78.25;;;;;;;;;;5085042;28;20115;-69
2021/01/31 07:32:16;;;;;;;108.60;63.40;;;;;;;;;;5092785;28;20059;-69
2021/01/31 07:35:02;;;;;;;66.45;39.53;;;;;;;;;;5093121;28;20023;-69
2021/01/31 07:37:29;;;;;;;52.65;30.30;;;;;;;;;;5092428;28;20418;-69
2021/01/31 07:40:07;;;;;;;56.58;33.45;;;;;;;;;;5093044;28;20353;-70
2021/01/31 07:42:35;;;;;;;81.47;51.67;;;;;;;;;;5092903;28;20373;-69
2021/01/31 07:45:08;;;;;;;117.18;68.97;;;;;;;;;;5092816;28;20027;-70
2021/01/31 07:47:35;;;;;;;175.70;96.43;;;;;;;;;;5092236;28;20058;-69
2021/01/31 07:50:01;;;;;;;218.65;118.95;;;;;;;;;;5092810;28;20024;-69
2021/01/31 07:52:28;;;;;;;114.10;63.53;;;;;;;;;;5092359;28;20053;-69
2021/01/31 07:55:14;;;;;;;116.43;61.58;;;;;;;;;;5092728;28;20028;-69
2021/01/31 07:57:41;;;;;;;147.95;83.75;;;;;;;;;;5082041;28;20032;-69
2021/01/31 08:00:14;;;;;;;119.93;69.30;;;;;;;;;;5092501;28;20073;-69
2021/01/31 08:02:44;;;;;;;217.65;115.25;;;;;;;;;;5092644;28;20576;-69
2021/01/31 08:05:13;;;;;;;178.07;99.78;;;;;;;;;;5091587;28;20028;-69
2021/01/31 08:07:57;;;;;;;209.95;113.22;;;;;;;;;;5090542;28;20044;-68
2021/01/31 08:10:59;;;;;;;192.35;105.43;;;;;;;;;;5092490;28;20039;-69
2021/01/31 08:13:34;;;;;;;91.63;54.15;;;;;;;;;;5029818;28;20037;-69
2021/01/31 08:16:00;;;;;;;81.13;48.35;;;;;;;;;;5084048;28;20028;-69
2021/01/31 08:18:26;;;;;;;78.20;46.83;;;;;;;;;;5092457;28;20022;-69
2021/01/31 08:20:53;;;;;;;86.15;53.47;;;;;;;;;;5092178;28;20440;-69
2021/01/31 08:23:26;;;;;;;113.15;62.55;;;;;;;;;;5092408;28;20027;-69
2021/01/31 08:25:59;;;;;;;75.53;47.07;;;;;;;;;;5092411;28;20024;-69
2021/01/31 08:28:29;;;;;;;120.60;71.45;;;;;;;;;;5090615;28;20085;-70
2021/01/31 08:31:15;;;;;;;152.48;81.97;;;;;;;;;;5090967;28;20055;-69
2021/01/31 08:33:42;;;;;;;146.60;88.88;;;;;;;;;;5092194;28;20052;-69
2021/01/31 08:36:10;;;;;;;157.15;92.15;;;;;;;;;;5091951;28;20380;-69
2021/01/31 08:38:37;;;;;;;212.43;118.43;;;;;;;;;;5092389;28;20464;-70
2021/01/31 08:41:03;;;;;;;201.55;117.28;;;;;;;;;;5092411;28;20469;-69
2021/01/31 08:43:29;;;;;;;193.50;110.95;;;;;;;;;;5090556;28;20061;-69
2021/01/31 08:46:16;;;;;;;160.23;93.13;;;;;;;;;;5090754;28;20016;-69
2021/01/31 08:48:42;;;;;;;309.85;182.32;;;;;;;;;;5092507;28;20059;-69
2021/01/31 08:51:22;;;;;;;359.30;207.20;;;;;;;;;;5096159;28;20100;-69
2021/01/31 08:54:06;;;;;;;356.85;218.35;;;;;;;;;;5096060;28;20376;-69
2021/01/31 08:56:34;;;;;;;249.68;149.05;;;;;;;;;;5094544;28;20549;-69
2021/01/31 08:59:01;;;;;;;332.75;197.30;;;;;;;;;;5094741;28;20159;-69
2021/01/31 09:01:27;;;;;;;234.93;135.35;;;;;;;;;;5096094;28;20495;-69
2021/01/31 09:03:53;;;;;;;217.40;130.93;;;;;;;;;;5095383;28;20028;-69
2021/01/31 09:06:20;;;;;;;174.55;105.80;;;;;;;;;;5095714;28;20037;-69
2021/01/31 09:08:51;;;;;;;175.88;106.57;;;;;;;;;;5094223;28;20078;-69
2021/01/31 09:11:18;;;;;;;214.00;126.18;;;;;;;;;;5095276;28;20051;-69
2021/01/31 09:13:44;;;;;;;309.50;175.25;;;;;;;;;;5095632;28;20586;-69
2021/01/31 09:16:24;;;;;;;269.05;164.02;;;;;;;;;;5094351;28;20426;-69
2021/01/31 09:19:14;;;;;;;268.52;158.05;;;;;;;;;;5095119;28;20024;-69
2021/01/31 09:21:41;;;;;;;315.70;188.48;;;;;;;;;;5095677;28;20031;-69
2021/01/31 09:24:10;;;;;;;299.05;181.32;;;;;;;;;;5095165;28;20032;-69
2021/01/31 09:26:37;;;;;;;297.52;173.48;;;;;;;;;;5095273;28;20056;-69
2021/01/31 09:29:07;;;;;;;269.17;154.98;;;;;;;;;;5095360;28;20446;-69
2021/01/31 09:31:33;;;;;;;233.50;128.15;;;;;;;;;;5094935;28;20375;-69
2021/01/31 09:34:00;;;;;;;226.65;123.00;;;;;;;;;;5093982;28;20051;-69
2021/01/31 09:36:36;;;;;;;183.23;100.30;;;;;;;;;;5093933;28;20020;-69
2021/01/31 09:39:06;;;;;;;135.18;78.20;;;;;;;;;;5093574;28;20052;-70
2021/01/31 09:41:33;;;;;;;95.72;59.80;;;;;;;;;;5095382;28;20016;-69
2021/01/31 09:44:07;;;;;;;132.75;75.88;;;;;;;;;;5095120;28;20024;-70
2021/01/31 09:46:34;;;;;;;119.18;67.63;;;;;;;;;;5094684;28;20025;-70
2021/01/31 09:49:04;;;;;;;135.32;77.63;;;;;;;;;;5094946;28;20024;-68
2021/01/31 09:51:31;;;;;;;114.55;62.80;;;;;;;;;;5094971;28;20095;-68
2021/01/31 09:54:12;;;;;;;153.65;74.50;;;;;;;;;;5094480;28;20477;-69
2021/01/31 09:56:41;;;;;;;207.40;124.70;;;;;;;;;;5094918;28;20391;-69
2021/01/31 09:59:33;;;;;;;206.52;121.88;;;;;;;;;;5094326;28;20020;-69
2021/01/31 10:02:09;;;;;;;176.70;106.93;;;;;;;;;;5092104;28;20036;-69
2021/01/31 10:04:36;;;;;;;213.00;132.55;;;;;;;;;;5094725;28;20486;-69
2021/01/31 10:07:13;;;;;;;218.63;134.35;;;;;;;;;;5094202;28;20030;-69
2021/01/31 10:09:43;;;;;;;204.23;126.80;;;;;;;;;;5094514;28;20032;-69
2021/01/31 10:12:13;;;;;;;153.20;98.88;;;;;;;;;;5094447;28;20028;-69
2021/01/31 10:14:46;;;;;;;168.25;101.45;;;;;;;;;;5094118;28;20024;-69
2021/01/31 10:17:15;;;;;;;144.80;86.97;;;;;;;;;;5094454;28;20487;-69
2021/01/31 10:19:42;;;;;;;128.43;81.38;;;;;;;;;;5094506;28;20028;-69
2021/01/31 10:22:35;;;;;;;142.18;90.85;;;;;;;;;;5092673;28;20446;-69
2021/01/31 10:25:01;;;;;;;136.07;84.70;;;;;;;;;;5091564;28;20093;-68
2021/01/31 10:27:28;;;;;;;176.07;109.47;;;;;;;;;;5093744;28;20089;-68
2021/01/31 10:29:56;;;;;;;171.20;108.13;;;;;;;;;;5094112;28;20091;-69
2021/01/31 10:32:38;;;;;;;190.10;114.97;;;;;;;;;;5094058;28;20016;-69
2021/01/31 10:35:18;;;;;;;133.87;84.37;;;;;;;;;;5092519;28;20024;-69
2021/01/31 10:37:44;;;;;;;91.60;57.72;;;;;;;;;;5094331;28;20060;-69
2021/01/31 10:40:11;;;;;;;85.20;51.58;;;;;;;;;;5092786;28;20073;-69
2021/01/31 10:42:37;;;;;;;74.10;49.80;;;;;;;;;;5092326;28;20488;-69
2021/01/31 10:45:13;;;;;;;61.72;36.40;;;;;;;;;;5092602;28;20028;-68
2021/01/31 10:47:39;;;;;;;51.15;34.00;;;;;;;;;;5092554;28;20032;-69
2021/01/31 10:50:06;;;;;;;44.03;27.08;;;;;;;;;;5093710;28;20031;-69
2021/01/31 10:52:33;;;;;;;38.53;20.73;;;;;;;;;;5092506;28;20028;-69
2021/01/31 10:54:59;;;;;;;42.97;24.23;;;;;;;;;;5093820;28;20027;-69
2021/01/31 10:57:28;;;;;;;45.22;28.52;;;;;;;;;;5093375;28;20031;-69
2021/01/31 10:59:54;;;;;;;25.42;15.82;;;;;;;;;;5093871;28;20016;-68
2021/01/31 11:02:20;;;;;;;22.00;12.43;;;;;;;;;;5093085;28;20473;-68
2021/01/31 11:04:47;;;;;;;25.55;13.45;;;;;;;;;;5093585;28;20093;-70
2021/01/31 11:07:13;;;;;;;27.50;16.52;;;;;;;;;;5093283;28;20032;-70
2021/01/31 11:09:39;;;;;;;18.40;10.32;;;;;;;;;;5093095;28;20028;-70
2021/01/31 11:12:05;;;;;;;16.58;9.18;;;;;;;;;;5074670;28;20028;-70
2021/01/31 11:14:31;;;;;;;16.15;8.15;;;;;;;;;;5093323;28;20028;-70
2021/01/31 11:16:59;;;;;;;24.10;14.60;;;;;;;;;;5091669;28;20024;-69
2021/01/31 11:19:25;;;;;;;16.15;9.70;;;;;;;;;;5093481;28;20414;-69
2021/01/31 11:21:52;;;;;;;10.60;5.72;;;;;;;;;;5093302;28;20028;-69
2021/01/31 11:24:18;;;;;;;11.88;7.05;;;;;;;;;;5091482;28;20070;-69
2021/01/31 11:26:44;;;;;;;29.13;13.82;;;;;;;;;;5093076;28;20105;-69
2021/01/31 11:29:10;;;;;;;15.00;7.95;;;;;;;;;;5091778;28;20107;-70
2021/01/31 11:31:37;;;;;;;12.68;7.78;;;;;;;;;;5092720;28;20502;-69
2021/01/31 11:34:03;;;;;;;18.23;9.18;;;;;;;;;;5092984;28;20049;-70
2021/01/31 11:36:29;;;;;;;12.73;6.32;;;;;;;;;;5093117;28;20043;-69
2021/01/31 11:38:55;;;;;;;19.33;7.22;;;;;;;;;;5092707;28;20035;-69
2021/01/31 11:41:21;;;;;;;13.90;8.88;;;;;;;;;;5092807;28;20103;-68
2021/01/31 11:43:47;;;;;;;10.18;5.45;;;;;;;;;;5092882;28;20476;-68
2021/01/31 11:46:14;;;;;;;22.17;12.90;;;;;;;;;;5091059;28;20020;-68
2021/01/31 11:48:40;;;;;;;16.83;10.05;;;;;;;;;;5092831;28;20028;-68
2021/01/31 11:51:06;;;;;;;15.35;9.43;;;;;;;;;;5092728;28;20031;-68
2021/01/31 11:53:32;;;;;;;14.25;7.95;;;;;;;;;;5092249;28;20130;-69
2021/01/31 11:55:59;;;;;;;12.80;6.22;;;;;;;;;;5091527;28;20047;-68
2021/01/31 11:58:25;;;;;;;10.10;6.10;;;;;;;;;;5092889;28;20425;-69
2021/01/31 12:00:51;;;;;;;12.20;7.18;;;;;;;;;;5092187;28;20027;-69
2021/01/31 12:03:17;;;;;;;11.90;6.88;;;;;;;;;;5092647;28;20093;-69
2021/01/31 12:05:43;;;;;;;9.07;4.55;;;;;;;;;;5092177;28;20489;-69
2021/01/31 12:08:09;;;;;;;12.40;5.65;;;;;;;;;;5092334;28;20052;-69
2021/01/31 12:10:36;;;;;;;16.73;7.20;;;;;;;;;;5091239;28;20111;-68
2021/01/31 12:13:02;;;;;;;14.80;8.05;;;;;;;;;;5092111;28;20032;-69
2021/01/31 12:15:30;;;;;;;15.43;7.22;;;;;;;;;;5091335;28;20346;-69
2021/01/31 12:17:56;;;;;;;10.75;5.13;;;;;;;;;;5092663;28;20383;-69
2021/01/31 12:20:22;;;;;;;13.25;6.25;;;;;;;;;;5092092;28;20468;-69
2021/01/31 12:22:48;;;;;;;20.35;8.55;;;;;;;;;;5093532;28;20028;-68
2021/01/31 12:25:16;;;;;;;15.82;9.63;;;;;;;;;;5096570;28;20024;-68
2021/01/31 12:27:52;;;;;;;16.48;6.60;;;;;;;;;;5096229;28;20388;-68
2021/01/31 12:30:19;;;;;;;17.35;8.27;;;;;;;;;;5096424;28;20499;-68
2021/01/31 12:32:46;;;;;;;15.50;6.93;;;;;;;;;;5096329;28;20419;-68
2021/01/31 12:35:12;;;;;;;11.75;5.53;;;;;;;;;;5095930;28;20028;-68
2021/01/31 12:37:38;;;;;;;13.85;7.70;;;;;;;;;;5096580;28;20028;-68
2021/01/31 12:40:05;;;;;;;28.63;11.32;;;;;;;;;;5095138;28;20031;-69
2021/01/31 12:42:31;;;;;;;22.38;9.77;;;;;;;;;;5095886;28;20103;-68
2021/01/31 12:44:58;;;;;;;29.90;12.30;;;;;;;;;;5096118;28;20577;-69
2021/01/31 12:47:24;;;;;;;17.88;7.18;;;;;;;;;;5096138;28;20477;-68
2021/01/31 12:49:50;;;;;;;13.63;6.25;;;;;;;;;;5095743;28;20047;-68
2021/01/31 12:52:16;;;;;;;7.28;3.25;;;;;;;;;;5094847;28;20024;-68
2021/01/31 12:54:43;;;;;;;10.13;4.63;;;;;;;;;;5095925;28;20024;-69
2021/01/31 12:57:09;;;;;;;11.98;6.40;;;;;;;;;;5094410;28;20388;-68
2021/01/31 12:59:35;;;;;;;12.77;6.00;;;;;;;;;;5096154;28;20028;-69
2021/01/31 13:02:01;;;;;;;12.15;5.43;;;;;;;;;;5095539;28;20426;-69
2021/01/31 13:04:27;;;;;;;7.13;3.20;;;;;;;;;;5095861;28;20091;-69
2021/01/31 13:06:53;;;;;;;18.95;8.07;;;;;;;;;;5094460;28;20028;-71
2021/01/31 13:09:20;;;;;;;8.60;4.18;;;;;;;;;;5095268;28;20432;-69
2021/01/31 13:11:46;;;;;;;12.75;5.38;;;;;;;;;;5095689;28;20016;-69
2021/01/31 13:14:12;;;;;;;11.38;5.20;;;;;;;;;;5095667;28;20073;-69
2021/01/31 13:16:38;;;;;;;12.10;5.68;;;;;;;;;;5095298;28;20030;-69
2021/01/31 13:19:04;;;;;;;15.90;8.40;;;;;;;;;;5095723;28;20028;-69
2021/01/31 13:21:31;;;;;;;14.50;7.65;;;;;;;;;;5094149;28;20070;-69
2021/01/31 13:23:57;;;;;;;10.13;3.83;;;;;;;;;;5095065;28;20096;-69
2021/01/31 13:26:23;;;;;;;14.40;6.32;;;;;;;;;;5095343;28;20415;-69
2021/01/31 13:28:49;;;;;;;14.45;7.28;;;;;;;;;;5094211;28;20032;-69
2021/01/31 13:31:15;;;;;;;22.85;9.27;;;;;;;;;;5094953;28;20369;-70
2021/01/31 13:33:42;;;;;;;14.60;6.10;;;;;;;;;;5095416;28;20048;-69
2021/01/31 13:36:09;;;;;;;15.65;6.68;;;;;;;;;;5093381;28;20016;-70
2021/01/31 13:38:36;;;;;;;19.00;8.35;;;;;;;;;;5094744;28;20476;-69
2021/01/31 13:41:02;;;;;;;16.02;7.22;;;;;;;;;;5095524;28;20053;-69
2021/01/31 13:43:28;;;;;;;13.80;6.35;;;;;;;;;;5095131;28;20142;-69
2021/01/31 13:45:55;;;;;;;19.55;8.65;;;;;;;;;;5094580;28;20262;-70
2021/01/31 13:48:21;;;;;;;15.18;6.65;;;;;;;;;;5094964;28;20118;-69
2021/01/31 13:51:24;;;;;;;15.52;6.85;;;;;;;;;;5109845;27;20381;-70
2021/01/31 13:53:50;;;;;;;10.52;4.60;;;;;;;;;;5110556;28;20038;-70
2021/01/31 13:56:17;;;;;;;9.30;5.00;;;;;;;;;;5110424;28;20186;-69
2021/01/31 13:58:43;;;;;;;13.35;5.97;;;;;;;;;;5109765;28;20024;-69
2021/01/31 14:01:09;;;;;;;9.57;3.78;;;;;;;;;;5110107;28;20492;-69
2021/01/31 14:03:35;;;;;;;12.18;5.35;;;;;;;;;;5110040;28;20034;-69
2021/01/31 14:06:01;;;;;;;18.25;6.93;;;;;;;;;;5109665;28;20472;-70
2021/01/31 14:08:28;;;;;;;21.15;7.10;;;;;;;;;;5109974;28;20100;-70
2021/01/31 14:10:54;;;;;;;12.45;5.88;;;;;;;;;;5109861;28;20102;-70
2021/01/31 14:13:20;;;;;;;14.82;7.25;;;;;;;;;;5109624;28;20020;-70
2021/01/31 14:15:46;;;;;;;10.48;5.55;;;;;;;;;;5110354;28;20024;-69
2021/01/31 14:18:12;;;;;;;16.08;6.30;;;;;;;;;;5109838;28;20024;-70
2021/01/31 14:20:39;;;;;;;22.92;9.00;;;;;;;;;;5109461;28;20028;-69
2021/01/31 14:23:05;;;;;;;23.17;8.95;;;;;;;;;;5108398;28;20405;-69
2021/01/31 14:25:31;;;;;;;20.35;8.07;;;;;;;;;;5109734;28;20031;-69
2021/01/31 14:27:57;;;;;;;15.93;6.05;;;;;;;;;;5107894;28;20024;-69
2021/01/31 14:30:25;;;;;;;16.98;7.05;;;;;;;;;;5108148;28;20032;-69
2021/01/31 14:32:51;;;;;;;25.20;6.30;;;;;;;;;;5110121;28;20058;-69
2021/01/31 14:35:18;;;;;;;24.20;9.43;;;;;;;;;;5109370;28;20388;-69